Detall de PIREP

Printer-friendly versionPDF version

[2012/01/14 01:14:00]
Flight IATA:CT1005
Pilot Number:042
Company ICAO:CAT
Aircraft Type:B763/F
PAX:200
Departing Airport: EIDW
Destination Airport: LROP
Alternate Airport:LRCK
Online: VATSIM
Route:LIFFY UL975 WAL UM16 DOLAS UL603 BASNO UL620 KOPIT UM748 NEKUL UL605 LAMIT UL5 TUSET
Flight Level:F350
No Slew and time accel
No pause
Crash detect
Detect pilot in Cockpit between each 30 and 45 minutes
01:14 Zero fuel Weight: 244977 Lbs, Fuel Weight: 161708 Lbs
01:14 VATSIM:EIDW 131700Z 13003KT 9999 FEW010 02/01 Q1032 NOSIG
01:14 VATSIM:LROP 131700Z 27015KT CAVOK 07/M02 Q1009 8809//95 NOSIG
01:14 VOICE CATALONIAN/EU TOUR
01:18 Parking Brakes off
01:29 Take-off
01:29 Take off Weight: 403602 Lbs
01:29 Wind: 138º @ 003 Knots Heading: 096º
01:29 POS N53º 25´ 14´´ W006º 15´ 36´´
01:29 Gear Up: 181 Knots
01:29 Flaps:3 at 181 Knots
01:29 Flaps:2 at 159 Knots
01:30 Flaps:1 at 233 Knots
01:30 Flaps:0 at 240 Knots
01:44 Wind:342º@025 Knots Heading: 091º Ground Speed: 453 Knots Altitude 35288 ft
01:44 TOC
01:44 Fuel Weight: 150430 Lb
01:59 Wind:333º@029 Knots Heading: 098º Ground Speed: 458 Knots Altitude 35580 ft
02:14 Wind:330º@040 Knots Heading: 098º Ground Speed: 467 Knots Altitude 35554 ft
02:29 Wind:319º@068 Knots Heading: 108º Ground Speed: 503 Knots Altitude 35436 ft
02:44 Wind:327º@093 Knots Heading: 094º Ground Speed: 506 Knots Altitude 35295 ft
02:59 Wind:316º@118 Knots Heading: 097º Ground Speed: 532 Knots Altitude 35108 ft
03:14 Wind:315º@115 Knots Heading: 136º Ground Speed: 558 Knots Altitude 35085 ft
03:29 Wind:310º@120 Knots Heading: 139º Ground Speed: 562 Knots Altitude 35022 ft
03:44 Wind:302º@108 Knots Heading: 126º Ground Speed: 551 Knots Altitude 34986 ft
03:54 TOD
03:54 Fuel Weight: 124402 Lb
03:56 Flaps:1 at 286 Knots
03:57 Flaps:0 at 283 Knots
03:57 Flaps:1 at 266 Knots
03:59 Wind:296º@117 Knots Heading: 129º Ground Speed: 500 Knots Altitude 27037 ft
04:10 Flaps:0 at 246 Knots
04:14 Wind:311º@029 Knots Heading: 104º Ground Speed: 306 Knots Altitude 8982 ft
04:20 Flaps:1 at 255 Knots
04:20 Flaps:2 at 244 Knots
04:22 Flaps:3 at 225 Knots
04:27 Gear Down: 162 Knots
04:27 Flaps:4 at 163 Knots
04:27 Flaps:5 at 161 Knots
04:28 Flaps:6 at 157 Knots
04:29 Wind:276º@005 Knots Heading: 272º Ground Speed: 148 Knots Altitude 1322 ft
04:30 TouchDown:Rate -196 ft/min Speed: 138 Knots
04:30 VATSIM:LROP 132030Z 27012KT CAVOK 03/M04 Q1011 8809//95 NOSIG
04:30 Land
04:30 Wind:276º@005 Knots
04:30 Heading: 275º
04:30 Flight Duration: 03:01
04:30 Landing Weight: 362142 Lbs
04:30 POS N44º 33´ 58´´ E026º 06´ 03´´
04:35 Parking brakes on
04:35 Block to Block Duration: 03:17
04:35 Final Fuel: 116159 Lbls
04:35 Spent Fuel: 45549 Lbls
04:35 Flight Length: 1412 NM
04:35 TOD Land Length: 204 NM

Exportar CSV

Powered by Drupal - Modified by Danger4k